Weston, WY

3:48 PM MDT on July 29, 2014 (GMT -0600)
Gillette-Campbell County (KGCC) Elev 4364 ft | 44.34 °N, 105.54 °W | Change Station

Current weather conditions updated 55 minutes ago

Clear
Clear
68 °F
Feels Like 68 °F
N
10
Wind Variable Wind from WSW

Today is forecast to be Much Cooler than yesterday.

Today
High -- | Low -- °F
--% Chance of Precip.
Yesterday
High -- | Low -- °F
Precip. -- in
5:46 AM 8:30 PM
Waxing Crescent, 8% visible
Pressure 30.18 in
Visibility 10.0 miles
Clouds Clear
Dew Point 59 °F
Humidity 73%
Rainfall 0.22 in
Snow Depth Not available.
UV 10 out of 12
Pollen 6.30 out of 12
Air Quality Not available.
Flu Activity Not available.
METAR KGCC 292053Z AUTO 24009KT 10SM CLR 20/15 A3028 RMK AO2 SLP219 T02000150 50004

More Conditions Fewer Conditions

Pressure 30.18 in
Visibility 10.0 miles
Clouds Clear
Dew Point 59 °F
Humidity 73%
Rainfall 0.22 in
Snow Depth Not available.
UV 10 out of 12
Pollen 6.30 out of 12
Air Quality Not available.
Flu Activity Not available.
METAR KGCC 292053Z AUTO 24009KT 10SM CLR 20/15 A3028 RMK AO2 SLP219 T02000150 50004

More Conditions Fewer Conditions

10-Day Weather Forecast

Almanac

Astronomy

Jul. 29, 2014 Rise Set
Actual Time 5:46 AM MDT 8:30 PM MDT
Civil Twilight 5:12 AM MDT 9:03 PM MDT
Nautical Twilight 4:30 AM MDT 9:46 PM MDT
Astronomical Twilight 3:40 AM MDT 10:34 PM MDT
Moon 8:33 AM MDT 9:35 PM MDT
Length of Visible Light 15h 51m
Length of Day
14h 44m
Tomorrow will be 2m 16s shorter.
Waxing Crescent, 8% of the Moon is Illuminated
Today
Waxing Crescent
Aug 3
First Quarter
Aug 10
Full
Aug 17
Last Quarter
Aug 25
New

Today's Extremes

State Highs State Lows

Community

WunderPhotos

Upload Photos

1,738,878 photos uploaded!

Nearby

Snow Depth

Station Depth Elevation
Casper Mountain 0 in 7850 ft
Sand Lake 0 in 10050 ft
Crow Creek 0 in 8330 ft
Big Sandy Opening 1 in 9080 ft
Gunsight Pass 0 in 9820 ft

Earthquake Activity

City Distance Mag. Time & Date
No recent earthquake activity has been reported nearby.
Minimum magnitude displayed is 2.5.

Coastal Water Temperatures

Place Temperature
No Stations Reporting

Nearby Weather Stations

Station Location Temp. Heat Index Dew Point Humidity Wind Precip. Elev Updated Type
South Gillette, Swanson Road, Gillette, WY 68.5 °F - 56 °F 64% SW  at  8.3 mph 0.00 in / hr 4580 ft 3:48 PM MDT Rapid Fire
Crestview, Gillette, WY 70.9 °F 75 °F 58 °F 64% WSW  at  3.1 mph 0.00 in / hr 4685 ft 3:48 PM MDT Rapid Fire
South Gillette, HWY 50, Gillette, WY 65.7 °F - 56 °F 72% NW  at  7.0 mph 0.00 in / hr 4840 ft 3:36 PM MDT Normal
UNION CHAPEL FAIRVIEW, GILLETTE, WY 66.9 °F - 59 °F 77% West  at  6.0 mph - / hr 4593 ft 3:40 PM MDT Normal
RAWS ECHETA WY, Gillette, WY 69 °F - 55 °F 62% SW  at  10 mph 0.00 in / hr 4396 ft 2:51 PM MDT MADIS

Show More Stations Show Fewer Stations